Time;durP1;ratioP1;P1;durP2;ratioP2;P2;SDS_P1;SDS_P2;PMS_P1;PMS_P2;Temp;Humidity;BMP_temperature;BMP_pressure;BME280_temperature;BME280_humidity;BME280_pressure;Samples;Min_cycle;Max_cycle;Signal;HPM_P1;HPM_P2
2023/03/31 00:01:12;;;;;;;3.05;0.90;;;;;;;12.04;100.00;99019.06;12198940;19;20010;-79
2023/03/31 00:05:16;;;;;;;7.30;1.48;;;;;;;12.05;100.00;99023.50;12197172;19;20580;-80
2023/03/31 00:09:20;;;;;;;3.90;1.10;;;;;;;12.13;100.00;98995.31;12174125;19;20010;-79
2023/03/31 00:13:22;;;;;;;8.45;1.23;;;;;;;12.16;100.00;98999.44;12193833;19;20011;-79
2023/03/31 00:17:24;;;;;;;8.82;1.48;;;;;;;12.23;100.00;98989.78;12195831;19;20033;-78
2023/03/31 00:21:33;;;;;;;7.80;1.15;;;;;;;12.28;100.00;98987.00;12176044;19;20085;-79
2023/03/31 00:25:34;;;;;;;4.43;1.15;;;;;;;12.32;100.00;98981.75;12189943;19;21457;-80
2023/03/31 00:29:40;;;;;;;7.67;1.40;;;;;;;12.34;100.00;98981.44;12172579;19;20041;-78
2023/03/31 00:33:42;;;;;;;4.97;1.10;;;;;;;12.34;100.00;98973.97;12192585;19;20086;-80
2023/03/31 00:37:44;;;;;;;9.70;1.87;;;;;;;12.34;100.00;98956.56;12198956;19;20011;-79
2023/03/31 00:41:46;;;;;;;7.72;1.80;;;;;;;12.27;100.00;98954.94;12169248;19;20521;-79
2023/03/31 00:45:48;;;;;;;11.52;1.95;;;;;;;12.20;100.00;98945.31;12194844;19;20472;-79
2023/03/31 00:49:55;;;;;;;9.45;1.48;;;;;;;12.21;100.00;98933.97;12191783;19;20013;-78
2023/03/31 00:54:03;;;;;;;8.15;1.55;;;;;;;12.24;100.00;98925.13;12168149;19;20010;-79
2023/03/31 00:58:06;;;;;;;7.68;1.25;;;;;;;12.27;100.00;98918.22;12198791;19;20010;-79
2023/03/31 01:02:09;;;;;;;5.93;1.33;;;;;;;12.28;100.00;98914.31;12194496;19;20035;-79
2023/03/31 01:06:13;;;;;;;7.78;1.55;;;;;;;12.30;100.00;98912.94;12171507;19;20009;-79
2023/03/31 01:10:19;;;;;;;7.53;1.52;;;;;;;12.35;100.00;98909.34;12193883;19;20020;-80
2023/03/31 01:14:22;;;;;;;5.63;1.33;;;;;;;12.39;100.00;98904.88;12194254;19;20507;-79
2023/03/31 01:18:24;;;;;;;7.07;1.45;;;;;;;12.45;100.00;98898.22;12173383;19;20014;-78
2023/03/31 01:22:49;;;;;;;7.05;1.50;;;;;;;12.43;100.00;98889.41;12190037;19;20017;-78
2023/03/31 01:27:00;;;;;;;8.98;1.48;;;;;;;12.47;100.00;98884.97;12173141;19;20046;-78
2023/03/31 01:31:01;;;;;;;10.20;1.80;;;;;;;12.46;100.00;98872.28;12194370;19;20007;-78
2023/03/31 01:35:15;;;;;;;5.82;1.58;;;;;;;12.49;100.00;98857.88;12186063;19;20017;-78
2023/03/31 01:39:38;;;;;;;6.28;1.90;;;;;;;12.47;100.00;98856.50;12168456;19;20491;-78
2023/03/31 01:44:22;;;;;;;6.45;1.27;;;;;;;12.51;100.00;98846.53;12187950;19;20618;-78
2023/03/31 01:48:56;;;;;;;9.13;1.45;;;;;;;12.50;100.00;98850.41;12170099;19;20024;-78
2023/03/31 01:53:17;;;;;;;8.25;1.48;;;;;;;12.41;100.00;98846.59;12186875;19;20007;-78
2023/03/31 01:57:36;;;;;;;7.20;1.38;;;;;;;12.34;100.00;98835.84;12179260;19;20919;-79
2023/03/31 02:02:37;;;;;;;5.35;1.20;;;;;;;12.23;100.00;98829.56;12206968;19;20007;-78
2023/03/31 02:06:45;;;;;;;6.18;1.58;;;;;;;12.26;100.00;98814.38;12165448;19;20027;-80
2023/03/31 02:10:48;;;;;;;8.25;1.70;;;;;;;12.26;100.00;98808.84;12196822;19;19999;-77
2023/03/31 02:14:53;;;;;;;6.65;1.90;;;;;;;12.26;100.00;98806.91;12175106;19;20014;-77
2023/03/31 02:19:01;;;;;;;4.82;1.45;;;;;;;12.31;100.00;98793.06;12190727;19;20053;-77
2023/03/31 02:23:04;;;;;;;7.57;1.85;;;;;;;12.34;100.00;98796.34;12232992;19;20010;-76
2023/03/31 02:27:17;;;;;;;7.30;1.77;;;;;;;12.36;100.00;98788.63;12235020;19;20076;-79
2023/03/31 02:31:28;;;;;;;7.15;1.60;;;;;;;12.48;100.00;98784.38;12256645;19;19994;-76
2023/03/31 02:35:33;;;;;;;4.45;1.50;;;;;;;12.51;100.00;98782.97;12230689;19;20006;-77
2023/03/31 02:39:39;;;;;;;9.82;1.45;;;;;;;12.45;100.00;98765.59;12256973;19;20015;-80
2023/03/31 02:43:41;;;;;;;6.50;1.48;;;;;;;12.39;100.00;98769.53;12258932;19;20003;-78
2023/03/31 02:47:42;;;;;;;9.15;1.50;;;;;;;12.25;100.00;98765.75;12236907;19;20032;-78
2023/03/31 02:51:54;;;;;;;6.32;1.17;;;;;;;12.14;100.00;98762.25;12253218;19;20002;-78
2023/03/31 02:56:33;;;;;;;5.00;1.63;;;;;;;11.94;100.00;98756.84;12251092;19;20400;-80
2023/03/31 03:01:00;;;;;;;8.52;1.40;;;;;;;11.81;100.00;98749.97;12200627;19;20076;-81
2023/03/31 03:05:19;;;;;;;9.18;1.25;;;;;;;11.70;100.00;98738.16;12226419;19;20034;-82
2023/03/31 03:09:51;;;;;;;8.60;1.92;;;;;;;11.57;100.00;98716.69;12208441;19;20023;-85
2023/03/31 03:14:16;;;;;;;6.20;1.90;;;;;;;11.52;100.00;98689.97;12223203;19;20021;-84
2023/03/31 03:18:17;;;;;;;8.48;1.88;;;;;;;11.46;100.00;98671.78;12208263;19;20057;-85
2023/03/31 03:22:19;;;;;;;6.13;1.80;;;;;;;11.40;100.00;98659.94;12226257;19;20003;-85
2023/03/31 03:26:26;;;;;;;7.63;1.67;;;;;;;11.31;100.00;98649.78;12224017;19;20042;-85
2023/03/31 03:30:28;;;;;;;7.70;1.88;;;;;;;11.25;100.00;98637.97;12199838;19;20010;-84
2023/03/31 03:34:30;;;;;;;9.32;1.83;;;;;;;11.26;100.00;98633.25;12213826;19;20010;-84
2023/03/31 03:38:32;;;;;;;7.03;1.70;;;;;;;11.25;100.00;98626.94;12184200;19;20007;-83
2023/03/31 03:42:34;;;;;;;6.32;2.22;;;;;;;11.24;100.00;98608.72;12204107;19;20022;-83
2023/03/31 03:46:35;;;;;;;5.77;1.70;;;;;;;11.24;100.00;98603.19;12205470;19;20507;-82
2023/03/31 03:50:37;;;;;;;7.30;1.45;;;;;;;11.24;100.00;98592.16;12184977;19;20426;-82
2023/03/31 03:54:39;;;;;;;9.25;1.58;;;;;;;11.20;100.00;98615.91;12200325;19;20010;-83
2023/03/31 03:58:41;;;;;;;4.45;1.50;;;;;;;11.23;100.00;98579.50;12203678;19;20003;-82
2023/03/31 04:02:42;;;;;;;5.47;1.67;;;;;;;11.25;100.00;98559.94;12181885;19;20006;-82
2023/03/31 04:06:44;;;;;;;6.00;1.30;;;;;;;11.24;100.00;98564.59;12202430;19;20034;-81
2023/03/31 04:10:48;;;;;;;6.63;1.25;;;;;;;11.18;100.00;98539.00;12200476;19;20002;-81
2023/03/31 04:14:50;;;;;;;4.65;1.30;;;;;;;11.18;100.00;98513.34;12176615;19;20078;-81
2023/03/31 04:18:55;;;;;;;6.40;1.35;;;;;;;11.13;100.00;98552.81;12204683;19;20027;-80
2023/03/31 04:22:57;;;;;;;7.70;1.63;;;;;;;11.15;100.00;98542.34;12201715;19;20006;-81
2023/03/31 04:26:59;;;;;;;3.95;1.52;;;;;;;11.17;100.00;98550.31;12178424;19;20766;-80
2023/03/31 04:31:02;;;;;;;8.73;1.73;;;;;;;11.17;100.00;98526.31;12200386;19;19998;-80
2023/03/31 04:35:05;;;;;;;6.30;1.60;;;;;;;11.20;100.00;98524.91;12196082;19;20011;-79
2023/03/31 04:39:09;;;;;;;;;;;;;;;11.19;100.00;98506.75;12179429;19;20013;-80
2023/03/31 04:43:12;;;;;;;5.03;1.33;;;;;;;11.22;100.00;98488.81;12199565;19;19911;-82
2023/03/31 04:47:13;;;;;;;5.43;1.43;;;;;;;11.27;100.00;98481.28;12217755;19;20047;-79
2023/03/31 04:51:15;;;;;;;7.22;1.52;;;;;;;11.31;100.00;98467.78;12236394;19;20031;-80
2023/03/31 04:55:17;;;;;;;6.43;1.33;;;;;;;11.35;100.00;98471.59;12266063;19;20007;-78
2023/03/31 04:59:19;;;;;;;8.97;1.63;;;;;;;11.38;100.00;98485.63;12269010;19;20011;-79
2023/03/31 05:03:21;;;;;;;8.50;1.65;;;;;;;11.38;100.00;98493.09;12226906;19;20068;-80
2023/03/31 05:07:23;;;;;;;3.77;1.33;;;;;;;11.35;100.00;98502.75;12203242;19;20407;-82
2023/03/31 05:11:25;;;;;;;10.70;1.98;;;;;;;11.32;100.00;98497.81;12194995;19;20007;-85
2023/03/31 05:15:27;;;;;;;9.33;1.67;;;;;;;11.26;100.00;98490.69;12176646;19;20002;-87
2023/03/31 05:19:28;;;;;;;5.25;2.03;;;;;;;11.20;100.00;98489.06;12203629;19;20480;-85
2023/03/31 05:23:31;;;;;;;6.63;1.90;;;;;;;11.17;100.00;98492.41;12173349;19;20006;-85
2023/03/31 05:27:33;;;;;;;8.30;1.65;;;;;;;11.09;100.00;98470.94;12195078;19;20003;-85
2023/03/31 05:31:35;;;;;;;8.38;2.13;;;;;;;11.05;100.00;98467.13;12206643;19;20014;-86
2023/03/31 05:35:36;;;;;;;10.90;1.90;;;;;;;10.98;100.00;98448.16;12181529;19;20600;-84
2023/03/31 05:39:38;;;;;;;3.03;1.20;;;;;;;10.90;100.00;98454.28;12205248;19;20015;-83
2023/03/31 05:43:40;;;;;;;7.72;2.35;;;;;;;10.80;100.00;98449.66;12202055;19;20006;-83
2023/03/31 05:47:42;;;;;;;7.82;1.85;;;;;;;10.78;100.00;98424.31;12182894;19;20049;-83
2023/03/31 05:51:45;;;;;;;;;;;;;;;10.63;100.00;98400.44;12203823;19;20013;-84
2023/03/31 05:55:47;;;;;;;5.78;2.10;;;;;;;10.70;100.00;98387.16;12204956;19;19914;-83
2023/03/31 05:59:49;;;;;;;6.22;2.03;;;;;;;10.71;100.00;98377.78;12184528;19;20015;-85
2023/03/31 06:03:52;;;;;;;8.18;2.50;;;;;;;10.69;100.00;98379.19;12206777;19;20011;-84
2023/03/31 06:07:53;;;;;;;9.33;2.60;;;;;;;10.75;100.00;98369.78;12208283;19;20002;-84
2023/03/31 06:11:55;;;;;;;6.10;2.60;;;;;;;10.75;100.00;98357.94;12183223;19;20725;-82
2023/03/31 06:15:58;;;;;;;9.60;2.90;;;;;;;10.81;100.00;98352.09;12203469;19;20015;-84
2023/03/31 06:20:01;;;;;;;13.82;3.33;;;;;;;10.79;100.00;98343.28;12205763;19;20039;-86
2023/03/31 06:24:16;;;;;;;12.95;3.35;;;;;;;10.72;100.00;98321.56;12184646;19;19998;-82
2023/03/31 06:28:20;;;;;;;8.43;3.27;;;;;;;10.68;100.00;98294.91;12204450;19;20082;-83
2023/03/31 06:32:24;;;;;;;10.27;3.42;;;;;;;10.75;100.00;98292.63;12205657;19;20010;-83
2023/03/31 06:36:27;;;;;;;8.57;3.33;;;;;;;10.77;100.00;98286.81;12163247;19;20006;-82
2023/03/31 06:40:29;;;;;;;9.45;3.35;;;;;;;10.83;100.00;98267.22;12208522;19;20125;-82
2023/03/31 06:44:31;;;;;;;10.43;4.00;;;;;;;10.92;100.00;98262.72;12208229;19;20002;-85
2023/03/31 06:48:33;;;;;;;11.35;4.00;;;;;;;10.97;100.00;98244.47;12219443;19;20090;-84
2023/03/31 06:52:35;;;;;;;12.50;3.75;;;;;;;11.10;100.00;98246.56;12211538;19;20006;-81
2023/03/31 06:56:37;;;;;;;10.77;3.67;;;;;;;11.09;100.00;98250.41;12194744;19;20014;-82
2023/03/31 07:00:39;;;;;;;8.00;4.13;;;;;;;11.11;100.00;98242.69;12213643;19;20011;-83
2023/03/31 07:04:41;;;;;;;6.88;3.67;;;;;;;11.14;100.00;98237.41;12211006;19;20003;-83
2023/03/31 07:08:43;;;;;;;8.88;3.83;;;;;;;11.26;100.00;98244.47;12185904;19;20491;-85
2023/03/31 07:12:45;;;;;;;9.50;3.53;;;;;;;11.27;100.00;98232.31;12203805;19;20006;-85
2023/03/31 07:16:47;;;;;;;7.85;4.07;;;;;;;11.38;100.00;98229.16;12215515;19;20100;-80
2023/03/31 07:20:49;;;;;;;9.60;3.92;;;;;;;11.42;100.00;98229.38;12185307;19;20002;-81
2023/03/31 07:24:52;;;;;;;7.78;3.75;;;;;;;11.41;100.00;98242.34;12203865;19;20027;-83
2023/03/31 07:28:56;;;;;;;6.63;3.78;;;;;;;11.47;100.00;98250.56;12204860;19;20370;-82
2023/03/31 07:33:01;;;;;;;7.95;3.35;;;;;;;11.27;100.00;98251.59;12184041;19;20035;-82
2023/03/31 07:37:05;;;;;;;;;;;;;;;11.33;100.00;98254.03;12209231;19;20009;-82
2023/03/31 07:41:18;;;;;;;9.95;4.22;;;;;;;11.22;100.00;98260.78;12216930;19;19931;-82
2023/03/31 07:45:22;;;;;;;11.88;4.15;;;;;;;11.12;100.00;98275.50;12188885;19;20007;-83
2023/03/31 07:49:25;;;;;;;11.02;4.35;;;;;;;11.01;100.00;98273.13;12209790;19;20682;-81
2023/03/31 07:53:27;;;;;;;11.73;3.80;;;;;;;10.92;100.00;98264.66;12190173;19;20096;-82
2023/03/31 07:57:29;;;;;;;7.68;3.83;;;;;;;11.05;100.00;98285.19;12208768;19;20126;-82
2023/03/31 08:01:33;;;;;;;9.05;2.58;;;;;;;11.04;100.00;98286.31;12240777;19;20271;-80
2023/03/31 08:05:37;;;;;;;4.45;2.17;;;;;;;11.07;100.00;98278.28;12235431;19;19998;-81
2023/03/31 08:09:45;;;;;;;5.75;2.00;;;;;;;11.08;100.00;98279.09;12255804;19;20002;-80
2023/03/31 08:13:48;;;;;;;3.67;1.73;;;;;;;11.33;100.00;98276.09;12248415;19;20047;-79
2023/03/31 08:17:54;;;;;;;4.45;1.90;;;;;;;11.82;100.00;98279.66;12220208;19;20049;-82
2023/03/31 08:21:56;;;;;;;3.97;1.17;;;;;;;12.26;100.00;98273.84;12206519;19;20370;-83
2023/03/31 08:26:12;;;;;;;4.13;1.65;;;;;;;12.45;100.00;98271.06;12212807;19;20007;-83
2023/03/31 08:30:19;;;;;;;2.63;1.37;;;;;;;12.16;100.00;98287.78;12194200;19;20329;-81
2023/03/31 08:34:22;;;;;;;5.25;1.35;;;;;;;12.03;100.00;98296.81;12212618;19;20061;-82
2023/03/31 08:38:24;;;;;;;3.30;1.60;;;;;;;11.74;100.00;98303.19;12211142;19;20345;-81
2023/03/31 08:42:37;;;;;;;4.20;2.10;;;;;;;11.56;100.00;98298.44;12178165;19;20011;-81
2023/03/31 08:46:40;;;;;;;;;;;;;;;11.43;100.00;98288.13;12204419;19;20015;-81
2023/03/31 08:50:48;;;;;;;4.85;2.28;;;;;;;11.39;100.00;98257.53;12192806;19;19914;-83
2023/03/31 08:54:58;;;;;;;6.40;2.72;;;;;;;11.33;100.00;98258.72;12212701;19;20002;-82
2023/03/31 08:59:02;;;;;;;7.25;2.45;;;;;;;11.24;100.00;98260.47;12216695;19;20030;-83
2023/03/31 09:03:17;;;;;;;7.47;3.13;;;;;;;11.40;100.00;98260.03;12192286;19;20008;-81
2023/03/31 09:07:51;;;;;;;6.60;3.15;;;;;;;11.99;100.00;98251.59;12225938;19;20021;-81
2023/03/31 09:11:57;;;;;;;11.85;3.80;;;;;;;11.99;100.00;98226.75;12194500;19;20013;-80
2023/03/31 09:16:23;;;;;;;10.52;3.85;;;;;;;11.77;100.00;98225.34;12221965;19;20006;-81
2023/03/31 09:20:29;;;;;;;9.77;4.10;;;;;;;11.73;100.00;98229.81;12224319;19;20007;-80
2023/03/31 09:24:50;;;;;;;8.95;4.07;;;;;;;11.85;100.00;98246.81;12202596;19;20046;-83
2023/03/31 09:28:59;;;;;;;8.10;3.30;;;;;;;12.12;100.00;98253.63;12216533;19;20091;-83
2023/03/31 09:33:11;;;;;;;5.80;3.08;;;;;;;12.26;100.00;98250.94;12187466;19;20471;-83
2023/03/31 09:37:13;;;;;;;7.25;3.28;;;;;;;12.48;100.00;98245.59;12210832;19;20006;-81
2023/03/31 09:41:17;;;;;;;10.43;2.80;;;;;;;12.80;100.00;98243.19;12204050;19;20080;-81
2023/03/31 09:45:19;;;;;;;5.72;2.92;;;;;;;12.86;100.00;98244.72;12185163;19;20378;-80
2023/03/31 09:49:26;;;;;;;8.30;2.47;;;;;;;12.70;100.00;98235.84;12258347;19;20049;-85
2023/03/31 09:53:36;;;;;;;6.03;2.55;;;;;;;12.46;100.00;98234.06;12234393;19;20014;-82
2023/03/31 09:57:39;;;;;;;8.20;2.47;;;;;;;12.09;100.00;98243.16;12226323;19;20014;-81
2023/03/31 10:01:45;;;;;;;5.90;1.80;;;;;;;11.78;100.00;98238.03;12218839;19;19999;-79
2023/03/31 10:05:51;;;;;;;8.82;1.70;;;;;;;11.93;100.00;98222.41;12201283;19;20026;-84
2023/03/31 10:09:55;;;;;;;5.57;1.98;;;;;;;12.19;100.00;98220.09;12220142;19;20018;-83
2023/03/31 10:14:15;;;;;;;7.93;1.60;;;;;;;12.40;100.00;98221.41;12222661;19;20046;-81
2023/03/31 10:18:19;;;;;;;7.70;1.38;;;;;;;12.66;100.00;98196.97;12200338;19;20010;-82
2023/03/31 10:22:22;;;;;;;8.10;1.23;;;;;;;12.91;100.00;98192.09;12232318;19;20010;-80
2023/03/31 10:26:28;;;;;;;2.08;0.63;;;;;;;13.22;100.00;98198.69;12222130;19;20010;-79
2023/03/31 10:30:36;;;;;;;2.25;0.60;;;;;;;13.44;100.00;98197.19;12195258;19;20034;-82
2023/03/31 10:34:41;;;;;;;2.38;0.90;;;;;;;13.24;100.00;98198.41;12217562;19;20598;-85
2023/03/31 10:38:49;;;;;;;4.03;0.90;;;;;;;13.15;100.00;98184.47;12193365;19;20007;-81
2023/03/31 10:43:15;;;;;;;3.90;0.90;;;;;;;13.15;100.00;98184.47;12212902;19;20034;-80
2023/03/31 10:47:20;;;;;;;6.50;0.98;;;;;;;13.29;100.00;98187.25;12214877;19;20354;-79
2023/03/31 10:51:26;;;;;;;3.95;1.10;;;;;;;13.51;100.00;98182.94;12196417;19;20035;-79
2023/03/31 10:55:41;;;;;;;6.43;1.30;;;;;;;13.52;100.00;98179.88;12210951;19;20014;-79
2023/03/31 11:00:12;;;;;;;6.53;1.08;;;;;;;13.58;100.00;98169.50;12187725;19;20090;-82
2023/03/31 11:04:29;;;;;;;6.82;1.60;;;;;;;13.81;100.00;98159.31;12222573;19;20071;-81
2023/03/31 11:08:54;;;;;;;7.00;1.45;;;;;;;13.96;100.00;98150.66;12195377;19;20006;-80
2023/03/31 11:13:19;;;;;;;13.63;2.03;;;;;;;14.44;94.84;98138.97;12222411;19;20042;-79
2023/03/31 11:17:24;;;;;;;12.63;2.08;;;;;;;14.76;94.29;98134.31;12268512;19;19999;-82
2023/03/31 11:21:52;;;;;;;5.65;1.40;;;;;;;14.84;92.45;98130.72;12246133;19;20002;-83
2023/03/31 11:26:08;;;;;;;10.18;1.75;;;;;;;14.59;92.09;98123.94;12233325;19;20002;-80
2023/03/31 11:30:41;;;;;;;8.25;1.83;;;;;;;14.78;91.44;98110.66;12190427;19;20006;-81
2023/03/31 11:35:06;;;;;;;10.43;1.63;;;;;;;14.83;91.77;98101.38;12204681;19;20006;-80
2023/03/31 11:39:26;;;;;;;9.20;1.65;;;;;;;15.16;91.38;98104.59;12191083;19;20006;-79
2023/03/31 11:43:35;;;;;;;9.43;1.67;;;;;;;15.61;87.17;98111.88;12202299;19;20006;-80
2023/03/31 11:47:43;;;;;;;10.68;1.83;;;;;;;15.72;86.41;98122.38;12179817;19;20093;-78
2023/03/31 11:51:55;;;;;;;6.68;1.60;;;;;;;15.43;90.21;98117.41;12210748;19;20011;-80
2023/03/31 11:55:58;;;;;;;8.98;2.17;;;;;;;15.38;92.41;98113.97;12215928;19;20014;-79
2023/03/31 12:00:09;;;;;;;9.80;1.60;;;;;;;15.36;91.84;98119.84;12189622;19;20010;-79
2023/03/31 12:04:41;;;;;;;7.38;1.58;;;;;;;15.85;91.18;98115.03;12214137;19;20010;-79
2023/03/31 12:09:04;;;;;;;10.45;1.90;;;;;;;15.88;89.61;98119.13;12185459;19;20015;-80
2023/03/31 12:13:15;;;;;;;5.60;1.60;;;;;;;15.37;94.85;98127.03;12205066;19;20330;-80
2023/03/31 12:17:21;;;;;;;6.03;1.65;;;;;;;14.88;95.50;98109.56;12205990;19;20023;-81
2023/03/31 12:21:25;;;;;;;6.00;1.48;;;;;;;14.81;97.93;98098.94;12180944;19;20373;-81
2023/03/31 12:25:40;;;;;;;3.05;0.90;;;;;;;14.64;97.25;98087.75;12208116;19;20018;-79
2023/03/31 12:30:05;;;;;;;7.50;1.08;;;;;;;14.30;98.39;98071.72;12185146;19;20002;-80
2023/03/31 12:34:15;;;;;;;8.45;1.55;;;;;;;13.86;100.00;98101.88;12205326;19;20013;-81
2023/03/31 12:38:26;;;;;;;5.90;1.13;;;;;;;13.34;100.00;98090.31;12202047;19;20007;-80
2023/03/31 12:42:50;;;;;;;5.47;1.27;;;;;;;12.89;100.00;98097.59;12183606;19;20010;-80
2023/03/31 12:47:15;;;;;;;9.05;1.67;;;;;;;12.57;100.00;98088.25;12202241;19;20034;-80
2023/03/31 12:51:42;;;;;;;15.55;1.58;;;;;;;12.61;100.00;98085.69;12183065;19;20015;-81
2023/03/31 12:55:50;;;;;;;7.03;1.33;;;;;;;12.84;100.00;98083.88;12199985;19;20071;-80
2023/03/31 13:00:16;;;;;;;6.70;1.15;;;;;;;13.18;100.00;98080.69;12181008;19;20007;-82
2023/03/31 13:04:20;;;;;;;7.65;1.85;;;;;;;13.52;100.00;98062.81;12206098;19;20397;-82
2023/03/31 13:08:49;;;;;;;4.93;1.80;;;;;;;13.98;100.00;98059.78;12203044;19;20023;-79
2023/03/31 13:13:04;;;;;;;7.30;1.25;;;;;;;14.48;100.00;98040.19;12176563;19;20006;-82
2023/03/31 13:17:31;;;;;;;8.95;1.25;;;;;;;14.55;100.00;98037.00;12206248;19;20015;-81
2023/03/31 13:21:52;;;;;;;5.15;1.23;;;;;;;14.43;100.00;98034.81;12192197;19;20349;-80
2023/03/31 13:25:56;;;;;;;4.50;1.27;;;;;;;14.29;100.00;98025.75;12202582;19;20068;-81
2023/03/31 13:29:57;;;;;;;6.35;1.17;;;;;;;13.94;100.00;98010.88;12183172;19;20435;-79
2023/03/31 13:34:01;;;;;;;0.10;0.10;;;;;;;13.38;100.00;98134.78;12204860;19;20010;-77
2023/03/31 13:38:21;;;;;;;0.10;0.10;;;;;;;10.60;100.00;98105.44;12205183;19;20014;-80
2023/03/31 13:43:05;;;;;;;0.05;0.05;;;;;;;9.92;100.00;98109.88;12178744;19;20014;-80
2023/03/31 13:47:14;;;;;;;;;;;;;;;9.68;100.00;98103.47;12199057;19;20007;-81
2023/03/31 13:51:34;;;;;;;0.10;0.10;;;;;;;9.74;100.00;98102.31;12191816;19;19938;-80
2023/03/31 13:55:45;;;;;;;0.10;0.10;;;;;;;9.69;100.00;98100.41;12209414;19;20003;-80
2023/03/31 14:00:24;;;;;;;0.10;0.10;;;;;;;9.92;100.00;98082.38;12190398;19;20000;-80
2023/03/31 14:04:50;;;;;;;0.10;0.10;;;;;;;10.08;100.00;98069.28;12206828;19;20466;-80
2023/03/31 14:09:00;;;;;;;0.10;0.10;;;;;;;10.21;100.00;98074.13;12190248;19;20006;-81
2023/03/31 14:13:08;;;;;;;0.10;0.10;;;;;;;10.15;100.00;98061.53;12213811;19;20398;-80
2023/03/31 14:17:10;;;;;;;0.10;0.10;;;;;;;10.27;100.00;98058.44;12211780;19;20006;-80
2023/03/31 14:21:43;;;;;;;0.10;0.10;;;;;;;10.51;100.00;98050.19;12185248;19;20676;-80
2023/03/31 14:26:29;;;;;;;0.10;0.10;;;;;;;10.73;100.00;98058.72;12206015;19;20006;-79
2023/03/31 14:30:41;;;;;;;0.10;0.10;;;;;;;10.67;100.00;98064.59;12183425;19;20043;-79
2023/03/31 14:35:17;;;;;;;0.10;0.10;;;;;;;11.01;100.00;98038.84;12207483;19;20066;-79
2023/03/31 14:39:23;;;;;;;0.10;0.10;;;;;;;11.96;100.00;98034.94;12187867;19;20408;-80
2023/03/31 14:43:34;;;;;;;0.15;0.15;;;;;;;12.10;100.00;98037.72;12206199;19;20002;-79
2023/03/31 14:47:36;;;;;;;0.10;0.10;;;;;;;11.93;100.00;98031.94;12207351;19;20077;-79
2023/03/31 14:51:43;;;;;;;0.10;0.10;;;;;;;11.80;100.00;98030.75;12247189;19;19998;-77
2023/03/31 14:55:46;;;;;;;0.10;0.10;;;;;;;11.81;100.00;98021.38;12206924;19;20002;-81
2023/03/31 15:00:03;;;;;;;0.10;0.10;;;;;;;11.65;100.00;98012.50;12185037;19;20019;-81
2023/03/31 15:04:12;;;;;;;0.10;0.10;;;;;;;11.52;100.00;98005.03;12197772;19;20010;-80
2023/03/31 15:08:22;;;;;;;0.10;0.10;;;;;;;11.36;100.00;97999.75;12199498;19;20051;-79
2023/03/31 15:12:27;;;;;;;0.10;0.10;;;;;;;11.05;100.00;98087.56;12177467;19;20006;-80
2023/03/31 15:16:43;;;;;;;0.10;0.10;;;;;;;10.31;100.00;98069.66;12204035;19;20036;-81
2023/03/31 15:20:47;;;;;;;0.10;0.10;;;;;;;9.77;100.00;98085.25;12191567;19;20805;-80
2023/03/31 15:24:49;;;;;;;0.10;0.10;;;;;;;9.42;100.00;98084.38;12208183;19;20099;-80
2023/03/31 15:29:00;;;;;;;0.50;0.50;;;;;;;9.32;100.00;98081.69;12208568;19;20353;-80
2023/03/31 15:33:07;;;;;;;0.10;0.10;;;;;;;9.42;100.00;98070.63;12185315;19;20007;-79
2023/03/31 15:37:26;;;;;;;0.10;0.10;;;;;;;9.63;100.00;98070.50;12212490;19;20142;-79
2023/03/31 15:41:30;;;;;;;1.38;0.47;;;;;;;10.13;100.00;98066.50;12187733;19;20519;-78
2023/03/31 15:45:37;;;;;;;0.10;0.10;;;;;;;10.36;100.00;98062.19;12203623;19;20118;-80
2023/03/31 15:50:11;;;;;;;0.10;0.10;;;;;;;10.30;100.00;98060.59;12204532;19;20090;-79
2023/03/31 15:54:36;;;;;;;0.10;0.10;;;;;;;10.49;100.00;98057.91;12182300;19;20034;-79
2023/03/31 15:58:54;;;;;;;0.35;0.35;;;;;;;10.58;100.00;98038.81;12205568;19;20598;-80
2023/03/31 16:02:59;;;;;;;11.07;2.50;;;;;;;10.65;100.00;98045.63;12179126;19;20423;-78
2023/03/31 16:07:07;;;;;;;0.10;0.10;;;;;;;10.54;100.00;98046.03;12204981;19;20562;-77
2023/03/31 16:11:14;;;;;;;0.10;0.10;;;;;;;10.43;100.00;98043.38;12197026;19;20602;-78
2023/03/31 16:15:21;;;;;;;0.38;0.38;;;;;;;10.31;100.00;98037.44;12170474;19;20011;-80
2023/03/31 16:19:30;;;;;;;0.10;0.10;;;;;;;10.26;100.00;98032.84;12196310;19;20035;-78
2023/03/31 16:23:40;;;;;;;0.10;0.10;;;;;;;10.30;100.00;98033.06;12167472;19;20663;-78
2023/03/31 16:27:46;;;;;;;1.88;1.45;;;;;;;10.30;100.00;98033.06;12193589;19;20031;-79
2023/03/31 16:31:48;;;;;;;0.10;0.10;;;;;;;10.27;100.00;98028.97;12194693;19;20010;-80
2023/03/31 16:35:52;;;;;;;0.10;0.10;;;;;;;10.31;100.00;98023.69;12175367;19;20022;-78
2023/03/31 16:39:56;;;;;;;0.30;0.30;;;;;;;10.35;100.00;98023.91;12192053;19;20018;-79
2023/03/31 16:43:58;;;;;;;0.10;0.10;;;;;;;10.35;100.00;98038.53;12198981;19;20010;-79
2023/03/31 16:48:00;;;;;;;0.10;0.10;;;;;;;10.32;100.00;98033.59;12178050;19;20005;-79
2023/03/31 16:52:17;;;;;;;0.10;0.10;;;;;;;10.31;100.00;98040.22;12195640;19;20035;-79
2023/03/31 16:56:19;;;;;;;0.10;0.10;;;;;;;10.27;100.00;98039.97;12204984;19;20006;-80
2023/03/31 17:00:21;;;;;;;0.55;0.55;;;;;;;10.24;100.00;98043.28;12179638;19;20039;-80
2023/03/31 17:04:24;;;;;;;6.63;1.17;;;;;;;10.23;100.00;98043.56;12200820;19;20014;-80
2023/03/31 17:08:26;;;;;;;0.10;0.10;;;;;;;10.17;100.00;98030.97;12201199;19;20265;-81
2023/03/31 17:12:29;;;;;;;0.10;0.10;;;;;;;10.11;100.00;98037.63;12177489;19;20020;-80
2023/03/31 17:16:34;;;;;;;0.10;0.10;;;;;;;10.07;100.00;98040.13;12198147;19;20014;-80
2023/03/31 17:20:48;;;;;;;0.10;0.10;;;;;;;10.04;100.00;98047.03;12177748;19;20406;-80
2023/03/31 17:24:55;;;;;;;0.10;0.10;;;;;;;10.01;100.00;98041.31;12206754;19;20040;-81
2023/03/31 17:28:59;;;;;;;0.10;0.10;;;;;;;10.01;100.00;98041.31;12226943;19;20006;-80
2023/03/31 17:33:01;;;;;;;0.20;0.20;;;;;;;9.99;100.00;98038.84;12201137;19;20037;-79
2023/03/31 17:37:03;;;;;;;0.10;0.10;;;;;;;10.03;100.00;98039.09;12228110;19;20547;-79
2023/03/31 17:41:07;;;;;;;0.10;0.10;;;;;;;10.03;100.00;98039.91;12248247;19;19999;-81
2023/03/31 17:45:11;;;;;;;0.10;0.10;;;;;;;10.04;100.00;98046.22;12258400;19;19998;-81
2023/03/31 17:49:13;;;;;;;8.40;0.60;;;;;;;10.04;100.00;98044.28;12267655;19;20028;-81
2023/03/31 17:53:15;;;;;;;0.22;0.22;;;;;;;10.10;100.00;98050.56;12216141;19;20007;-80
2023/03/31 17:57:16;;;;;;;0.10;0.10;;;;;;;10.06;100.00;98044.00;12190463;19;20010;-80
2023/03/31 18:01:18;;;;;;;0.10;0.10;;;;;;;10.12;100.00;98062.13;12213785;19;20020;-80
2023/03/31 18:05:21;;;;;;;0.10;0.10;;;;;;;10.12;100.00;98083.31;12211833;19;20007;-82
2023/03/31 18:09:23;;;;;;;0.95;0.75;;;;;;;10.05;100.00;98089.13;12188687;19;20027;-81
2023/03/31 18:13:26;;;;;;;0.10;0.10;;;;;;;9.93;100.00;98103.25;12208284;19;20010;-83
2023/03/31 18:17:27;;;;;;;0.10;0.10;;;;;;;9.86;100.00;98116.53;12194069;19;20501;-83
2023/03/31 18:21:31;;;;;;;3.95;1.27;;;;;;;9.78;100.00;98101.44;12211807;19;20465;-82
2023/03/31 18:25:33;;;;;;;0.15;0.15;;;;;;;9.63;100.00;98085.06;12213663;19;20754;-82
2023/03/31 18:29:38;;;;;;;0.10;0.10;;;;;;;9.56;100.00;98103.81;12195950;19;20007;-82
2023/03/31 18:33:40;;;;;;;0.35;0.35;;;;;;;9.52;100.00;98106.31;12214798;19;20014;-81
2023/03/31 18:37:42;;;;;;;0.10;0.10;;;;;;;9.49;100.00;98104.16;12208175;19;20006;-81
2023/03/31 18:41:46;;;;;;;0.55;0.50;;;;;;;9.56;100.00;98103.81;12186229;19;20073;-83
2023/03/31 18:45:48;;;;;;;0.10;0.10;;;;;;;9.53;100.00;98098.91;12206768;19;20073;-81
2023/03/31 18:49:54;;;;;;;0.10;0.10;;;;;;;9.52;100.00;98105.50;12208164;19;20468;-82
2023/03/31 18:53:56;;;;;;;0.17;0.17;;;;;;;9.56;100.00;98101.06;12181020;19;20298;-82
2023/03/31 18:57:59;;;;;;;0.10;0.10;;;;;;;9.52;100.00;98111.81;12213491;19;20011;-81
2023/03/31 19:02:00;;;;;;;0.10;0.10;;;;;;;9.58;100.00;98096.94;12215752;19;20006;-80
2023/03/31 19:06:08;;;;;;;0.10;0.10;;;;;;;9.66;100.00;98098.25;12194991;19;20016;-80